Time;durP1;ratioP1;P1;durP2;ratioP2;P2;SDS_P1;SDS_P2;PMS_P1;PMS_P2;Temp;Humidity;BMP_temperature;BMP_pressure;BME280_temperature;BME280_humidity;BME280_pressure;Samples;Min_cycle;Max_cycle;Signal;HPM_P1;HPM_P2
2022/03/02 00:00:27;;;;;;;23.47;16.20;;;4.20;99.90;;;;;;5051874;28;20460;-73
2022/03/02 00:02:54;;;;;;;20.60;14.87;;;4.20;99.90;;;;;;5051795;28;20536;-74
2022/03/02 00:05:24;;;;;;;23.13;14.93;;;4.20;99.90;;;;;;5051351;28;20458;-74
2022/03/02 00:07:51;;;;;;;23.17;15.03;;;4.20;99.90;;;;;;5051529;28;20494;-74
2022/03/02 00:10:18;;;;;;;22.93;15.00;;;4.30;99.90;;;;;;5051661;28;20482;-74
2022/03/02 00:12:46;;;;;;;22.63;14.77;;;4.20;99.90;;;;;;5051439;28;20453;-74
2022/03/02 00:15:14;;;;;;;25.83;14.67;;;4.30;99.90;;;;;;5051404;28;20477;-74
2022/03/02 00:17:41;;;;;;;24.50;14.70;;;4.30;99.90;;;;;;5051359;28;20457;-74
2022/03/02 00:20:09;;;;;;;24.30;16.40;;;4.20;99.90;;;;;;5051483;28;20988;-74
2022/03/02 00:22:37;;;;;;;20.47;14.90;;;4.30;99.90;;;;;;5051224;28;20934;-75
2022/03/02 00:25:04;;;;;;;22.53;14.50;;;4.40;99.90;;;;;;5051333;28;20505;-74
2022/03/02 00:27:32;;;;;;;18.97;14.00;;;4.60;99.90;;;;;;5051344;28;20493;-73
2022/03/02 00:30:01;;;;;;;21.17;14.07;;;4.40;99.90;;;;;;5051180;28;20457;-73
2022/03/02 00:32:28;;;;;;;21.07;12.90;;;4.30;99.90;;;;;;5050302;28;20490;-75
2022/03/02 00:34:55;;;;;;;19.70;12.80;;;4.20;99.90;;;;;;5050733;28;20845;-74
2022/03/02 00:37:22;;;;;;;21.13;12.63;;;4.20;99.90;;;;;;5050872;28;20449;-74
2022/03/02 00:39:49;;;;;;;17.60;11.90;;;4.30;99.90;;;;;;5050779;28;20958;-73
2022/03/02 00:42:17;;;;;;;15.93;11.30;;;4.40;99.90;;;;;;5050893;28;20457;-75
2022/03/02 00:44:44;;;;;;;20.07;13.37;;;4.20;99.90;;;;;;5050921;28;20458;-74
2022/03/02 00:47:13;;;;;;;19.50;12.90;;;4.10;99.90;;;;;;5050703;28;20500;-73
2022/03/02 00:49:40;;;;;;;19.70;13.80;;;4.10;99.90;;;;;;5050906;28;20465;-74
2022/03/02 00:52:11;;;;;;;19.30;13.37;;;3.90;99.90;;;;;;5050906;28;20517;-73
2022/03/02 00:54:38;;;;;;;19.60;12.50;;;4.10;99.90;;;;;;5050829;28;20474;-74
2022/03/02 00:57:05;;;;;;;22.30;13.67;;;4.00;99.90;;;;;;5050790;28;20454;-74
2022/03/02 00:59:33;;;;;;;18.70;13.93;;;4.00;99.90;;;;;;5050604;28;20457;-73
2022/03/02 01:02:00;;;;;;;19.23;12.30;;;4.00;99.90;;;;;;5050476;28;20450;-74
2022/03/02 01:04:29;;;;;;;17.00;12.53;;;4.10;99.90;;;;;;5050571;28;20474;-74
2022/03/02 01:06:56;;;;;;;17.83;13.30;;;4.00;99.90;;;;;;5050430;28;20489;-73
2022/03/02 01:09:23;;;;;;;19.67;12.83;;;3.90;99.90;;;;;;5050499;28;20453;-73
2022/03/02 01:11:50;;;;;;;18.67;12.53;;;4.00;99.90;;;;;;5050598;28;20450;-74
2022/03/02 01:14:17;;;;;;;16.37;11.70;;;3.90;99.90;;;;;;5050113;28;20511;-75
2022/03/02 01:16:44;;;;;;;16.73;11.60;;;3.90;99.90;;;;;;5050211;28;20445;-74
2022/03/02 01:19:11;;;;;;;16.67;12.23;;;3.90;99.90;;;;;;5050493;28;20454;-73
2022/03/02 01:21:40;;;;;;;15.33;9.93;;;3.80;99.90;;;;;;5050327;28;20806;-75
2022/03/02 01:24:08;;;;;;;15.53;10.97;;;3.80;99.90;;;;;;5050047;28;20485;-74
2022/03/02 01:26:36;;;;;;;14.87;9.20;;;3.90;99.90;;;;;;5050169;28;20493;-74
2022/03/02 01:29:03;;;;;;;12.63;9.53;;;3.80;99.90;;;;;;5050125;28;20457;-73
2022/03/02 01:31:31;;;;;;;14.67;10.57;;;3.80;99.90;;;;;;5049876;28;20480;-74
2022/03/02 01:33:58;;;;;;;22.00;12.37;;;3.90;99.90;;;;;;5050108;28;21009;-74
2022/03/02 01:36:25;;;;;;;17.20;12.00;;;3.70;99.90;;;;;;5050136;28;20461;-74
2022/03/02 01:38:54;;;;;;;19.37;12.20;;;3.70;99.90;;;;;;5050035;28;20454;-73
2022/03/02 01:41:23;;;;;;;16.60;10.87;;;3.60;99.90;;;;;;5049698;28;20507;-75
2022/03/02 01:43:52;;;;;;;15.07;10.87;;;3.60;99.90;;;;;;5049284;28;20481;-73
2022/03/02 01:46:23;;;;;;;19.87;12.60;;;3.50;99.90;;;;;;5049762;28;20450;-74
2022/03/02 01:48:51;;;;;;;15.23;10.87;;;3.30;99.90;;;;;;5049805;28;20458;-75
2022/03/02 01:51:18;;;;;;;14.43;10.90;;;3.30;99.90;;;;;;5049948;28;20464;-74
2022/03/02 01:53:46;;;;;;;15.10;10.87;;;3.10;99.90;;;;;;5049616;28;20474;-74
2022/03/02 01:56:15;;;;;;;15.07;11.10;;;2.80;99.90;;;;;;5049549;28;20448;-74
2022/03/02 01:58:42;;;;;;;16.60;11.73;;;2.90;99.90;;;;;;5049653;28;20808;-75
2022/03/02 02:01:10;;;;;;;18.90;11.70;;;2.70;99.90;;;;;;5049669;28;20454;-74
2022/03/02 02:03:37;;;;;;;15.97;10.63;;;2.60;99.90;;;;;;5049832;28;20470;-74
2022/03/02 02:06:04;;;;;;;15.67;11.40;;;2.60;99.90;;;;;;5049839;28;20955;-74
2022/03/02 02:08:31;;;;;;;15.17;10.43;;;2.80;99.90;;;;;;5049688;28;20504;-74
2022/03/02 02:10:59;;;;;;;16.43;11.17;;;2.80;99.90;;;;;;5049281;28;20437;-74
2022/03/02 02:13:30;;;;;;;17.07;12.00;;;2.80;99.90;;;;;;5049512;28;20482;-73
2022/03/02 02:15:57;;;;;;;20.50;12.63;;;2.60;99.90;;;;;;5049903;28;20453;-74
2022/03/02 02:18:25;;;;;;;14.83;11.23;;;2.70;99.90;;;;;;5049766;28;20961;-74
2022/03/02 02:20:53;;;;;;;16.73;11.50;;;2.60;99.90;;;;;;5049434;28;20479;-75
2022/03/02 02:23:21;;;;;;;17.30;11.10;;;2.70;99.90;;;;;;5049283;28;20953;-73
2022/03/02 02:25:48;;;;;;;14.87;10.43;;;2.80;99.90;;;;;;5049495;28;20454;-73
2022/03/02 02:28:19;;;;;;;15.67;11.03;;;2.80;99.90;;;;;;5049475;28;20492;-75
2022/03/02 02:30:47;;;;;;;15.90;9.80;;;2.80;99.90;;;;;;5049436;28;20456;-73
2022/03/02 02:33:15;;;;;;;15.27;10.17;;;2.60;99.90;;;;;;5049116;28;20489;-74
2022/03/02 02:35:42;;;;;;;18.03;11.37;;;2.70;99.90;;;;;;5049303;28;20457;-73
2022/03/02 02:38:11;;;;;;;15.00;10.00;;;2.70;99.90;;;;;;5049196;28;20885;-74
2022/03/02 02:40:38;;;;;;;18.00;10.43;;;2.60;99.90;;;;;;5049527;28;20992;-74
2022/03/02 02:43:07;;;;;;;13.57;8.90;;;2.60;99.90;;;;;;5049426;28;20469;-75
2022/03/02 02:45:34;;;;;;;12.03;9.70;;;2.70;99.90;;;;;;5049328;28;20458;-74
2022/03/02 02:48:01;;;;;;;14.23;8.97;;;2.60;99.90;;;;;;5048988;28;20486;-74
2022/03/02 02:50:31;;;;;;;11.93;8.90;;;2.60;99.90;;;;;;5049154;28;20450;-74
2022/03/02 02:53:00;;;;;;;13.70;10.23;;;2.60;99.90;;;;;;5049253;28;20450;-74
2022/03/02 02:55:30;;;;;;;13.80;8.47;;;2.60;99.90;;;;;;5050301;28;20790;-73
2022/03/02 02:57:58;;;;;;;15.30;9.00;;;2.70;99.90;;;;;;5052956;28;20755;-73
2022/03/02 03:00:27;;;;;;;11.20;8.90;;;2.70;99.90;;;;;;5052708;28;20544;-74
2022/03/02 03:02:55;;;;;;;14.13;9.50;;;2.70;99.90;;;;;;5052778;28;20466;-74
2022/03/02 03:05:24;;;;;;;13.47;9.90;;;2.60;99.90;;;;;;5052873;28;20449;-73
2022/03/02 03:07:51;;;;;;;12.87;8.60;;;2.70;99.90;;;;;;5052727;28;21020;-74
2022/03/02 03:10:19;;;;;;;12.40;8.80;;;2.70;99.90;;;;;;5052762;28;20454;-74
2022/03/02 03:12:48;;;;;;;13.47;8.93;;;2.80;99.90;;;;;;5052764;28;20449;-74
2022/03/02 03:15:18;;;;;;;13.87;9.43;;;2.80;99.90;;;;;;5052433;28;20852;-73
2022/03/02 03:17:46;;;;;;;11.93;8.70;;;2.80;99.90;;;;;;5052425;28;20469;-73
2022/03/02 03:20:15;;;;;;;12.07;7.80;;;2.80;99.90;;;;;;5052639;28;20464;-73
2022/03/02 03:22:43;;;;;;;12.33;7.67;;;2.80;99.90;;;;;;5052328;28;20457;-74
2022/03/02 03:25:12;;;;;;;10.30;7.70;;;2.60;99.90;;;;;;5052450;28;20461;-75
2022/03/02 03:27:41;;;;;;;11.20;8.33;;;2.70;99.90;;;;;;5052235;28;20495;-74
2022/03/02 03:30:12;;;;;;;9.83;7.37;;;2.30;99.90;;;;;;5052298;28;20901;-75
2022/03/02 03:32:40;;;;;;;10.63;7.87;;;2.20;99.90;;;;;;5051962;28;20490;-75
2022/03/02 03:35:09;;;;;;;10.40;8.50;;;2.20;99.90;;;;;;5052293;28;20825;-74
2022/03/02 03:37:36;;;;;;;11.30;8.87;;;2.20;99.90;;;;;;5052040;28;20453;-74
2022/03/02 03:40:04;;;;;;;12.33;7.00;;;2.20;99.90;;;;;;5052049;28;20527;-75
2022/03/02 03:42:31;;;;;;;11.30;8.17;;;2.30;99.90;;;;;;5052069;28;20453;-74
2022/03/02 03:44:58;;;;;;;10.57;7.70;;;2.30;99.90;;;;;;5051947;28;20476;-74
2022/03/02 03:47:27;;;;;;;10.90;7.80;;;2.30;99.90;;;;;;5051639;28;20576;-74
2022/03/02 03:49:54;;;;;;;9.83;7.37;;;2.40;99.90;;;;;;5050584;28;20464;-75
2022/03/02 03:52:21;;;;;;;11.07;7.80;;;2.40;99.90;;;;;;5052909;28;20947;-74
2022/03/02 03:54:48;;;;;;;10.70;7.37;;;2.50;99.90;;;;;;5051715;28;20477;-73
2022/03/02 03:57:15;;;;;;;11.03;7.60;;;2.70;99.90;;;;;;5051873;28;20453;-73
2022/03/02 03:59:42;;;;;;;11.57;8.23;;;2.60;99.90;;;;;;5051723;28;20469;-74
2022/03/02 04:02:09;;;;;;;13.20;8.07;;;2.60;99.90;;;;;;5051743;28;20442;-74
2022/03/02 04:04:38;;;;;;;12.97;7.83;;;2.70;99.90;;;;;;5051632;28;20465;-73
2022/03/02 04:07:05;;;;;;;12.67;8.07;;;2.50;99.90;;;;;;5050604;28;20950;-74
2022/03/02 04:09:32;;;;;;;11.00;7.90;;;2.40;99.90;;;;;;5051670;28;20544;-74
2022/03/02 04:12:00;;;;;;;12.73;7.87;;;2.40;99.90;;;;;;5051576;28;20458;-75
2022/03/02 04:14:27;;;;;;;10.50;8.30;;;2.40;99.90;;;;;;5051755;28;20985;-74
2022/03/02 04:16:54;;;;;;;11.90;8.00;;;2.30;99.90;;;;;;5051757;28;20465;-74
2022/03/02 04:19:21;;;;;;;12.30;8.57;;;2.30;99.90;;;;;;5051655;28;20457;-74
2022/03/02 04:21:49;;;;;;;12.33;8.80;;;2.30;99.90;;;;;;5051222;28;20461;-74
2022/03/02 04:24:16;;;;;;;11.60;8.97;;;2.50;99.90;;;;;;5050983;28;20871;-74
2022/03/02 04:26:44;;;;;;;10.40;7.73;;;2.50;99.90;;;;;;5051114;28;20474;-74
2022/03/02 04:29:11;;;;;;;11.20;7.53;;;2.70;99.90;;;;;;5051300;28;21416;-74
2022/03/02 04:31:38;;;;;;;11.60;8.60;;;2.70;99.90;;;;;;5050864;28;20571;-74
2022/03/02 04:34:06;;;;;;;12.90;8.97;;;2.80;99.90;;;;;;5051310;28;20539;-74
2022/03/02 04:36:33;;;;;;;12.77;8.33;;;2.80;99.90;;;;;;5051022;28;20474;-74
2022/03/02 04:39:02;;;;;;;13.37;10.10;;;2.70;99.90;;;;;;5050722;28;20531;-74
2022/03/02 04:41:30;;;;;;;10.43;8.07;;;2.60;99.90;;;;;;5050937;28;20454;-74
2022/03/02 04:43:57;;;;;;;12.77;7.97;;;2.40;99.90;;;;;;5051048;28;20458;-73
2022/03/02 04:46:24;;;;;;;14.47;8.63;;;2.30;99.90;;;;;;5051016;28;20481;-73
2022/03/02 04:48:51;;;;;;;11.50;7.00;;;2.20;99.90;;;;;;5050563;28;20494;-74
2022/03/02 04:51:18;;;;;;;13.40;8.33;;;2.20;99.90;;;;;;5050864;28;20458;-73
2022/03/02 04:53:45;;;;;;;14.60;8.97;;;2.10;99.90;;;;;;5050443;28;21028;-74
2022/03/02 04:56:14;;;;;;;13.80;9.43;;;2.10;99.90;;;;;;5050544;28;20478;-74
2022/03/02 04:58:41;;;;;;;12.90;7.83;;;2.20;99.90;;;;;;5050736;28;20506;-73
2022/03/02 05:01:08;;;;;;;10.57;8.40;;;2.20;99.90;;;;;;5050803;28;20457;-74
2022/03/02 05:03:35;;;;;;;12.30;8.30;;;2.00;99.90;;;;;;5050535;28;20797;-75
2022/03/02 05:06:02;;;;;;;12.70;8.87;;;2.10;99.90;;;;;;5050318;28;20558;-73
2022/03/02 05:08:29;;;;;;;11.43;8.83;;;2.20;99.90;;;;;;5050264;28;20486;-71
2022/03/02 05:10:56;;;;;;;15.30;9.50;;;2.20;99.90;;;;;;5050299;28;20457;-71
2022/03/02 05:13:25;;;;;;;12.67;8.30;;;2.20;99.90;;;;;;5050522;28;20456;-71
2022/03/02 05:15:52;;;;;;;10.43;7.40;;;2.20;99.90;;;;;;5050257;28;20469;-71
2022/03/02 05:18:19;;;;;;;10.00;7.70;;;2.30;99.90;;;;;;5050205;28;20934;-71
2022/03/02 05:20:46;;;;;;;11.63;7.70;;;2.40;99.90;;;;;;5050282;28;20881;-71
2022/03/02 05:23:13;;;;;;;11.43;8.53;;;2.60;99.90;;;;;;5050275;28;20450;-71
2022/03/02 05:25:40;;;;;;;13.10;8.40;;;2.80;99.90;;;;;;5050073;28;20494;-70
2022/03/02 05:28:07;;;;;;;11.40;7.20;;;2.80;99.90;;;;;;5050032;28;20492;-71
2022/03/02 05:30:36;;;;;;;11.53;8.40;;;2.80;99.90;;;;;;5050005;28;20454;-69
2022/03/02 05:33:03;;;;;;;11.40;7.03;;;2.80;99.90;;;;;;5049667;28;20954;-71
2022/03/02 05:35:30;;;;;;;10.60;8.20;;;3.00;99.90;;;;;;5049786;28;20505;-71
2022/03/02 05:37:57;;;;;;;15.67;8.70;;;3.10;99.90;;;;;;5049967;28;20442;-71
2022/03/02 05:40:24;;;;;;;11.53;8.73;;;3.00;99.90;;;;;;5049985;28;20496;-71
2022/03/02 05:42:51;;;;;;;11.53;7.93;;;2.90;99.90;;;;;;5049980;28;20462;-70
2022/03/02 05:45:18;;;;;;;15.30;9.80;;;2.80;99.90;;;;;;5049836;28;20488;-72
2022/03/02 05:47:47;;;;;;;12.27;9.10;;;2.80;99.90;;;;;;5049867;28;20511;-72
2022/03/02 05:50:14;;;;;;;11.63;8.33;;;2.80;99.90;;;;;;5049700;28;20500;-73
2022/03/02 05:52:41;;;;;;;14.77;9.57;;;2.80;99.90;;;;;;5049771;28;20945;-71
2022/03/02 05:55:09;;;;;;;11.33;8.07;;;2.80;99.90;;;;;;5049745;28;20478;-70
2022/03/02 05:57:36;;;;;;;12.90;9.70;;;2.90;99.90;;;;;;5048244;28;20887;-70
2022/03/02 06:00:06;;;;;;;13.80;9.13;;;2.70;99.90;;;;;;5049350;28;20942;-69
2022/03/02 06:02:33;;;;;;;14.83;9.37;;;2.40;99.90;;;;;;5049640;28;20984;-75
2022/03/02 06:05:02;;;;;;;14.50;8.40;;;2.30;99.90;;;;;;5049553;28;20781;-72
2022/03/02 06:07:29;;;;;;;13.73;9.83;;;2.40;99.90;;;;;;5049661;28;20476;-71
2022/03/02 06:09:57;;;;;;;15.60;9.50;;;2.30;99.90;;;;;;5049690;28;20891;-71
2022/03/02 06:12:24;;;;;;;11.77;9.60;;;2.50;99.90;;;;;;5049484;28;20511;-71
2022/03/02 06:14:52;;;;;;;12.47;9.20;;;2.30;99.90;;;;;;5049508;28;20481;-74
2022/03/02 06:17:19;;;;;;;16.80;9.30;;;2.50;99.90;;;;;;5049776;28;20508;-79
2022/03/02 06:19:47;;;;;;;13.23;9.30;;;2.60;99.90;;;;;;5049909;28;20454;-74
2022/03/02 06:22:17;;;;;;;13.30;9.57;;;2.60;99.90;;;;;;5049512;28;20476;-74
2022/03/02 06:24:45;;;;;;;14.33;10.20;;;2.50;99.90;;;;;;5049381;28;20489;-76
2022/03/02 06:27:12;;;;;;;14.10;9.60;;;2.40;99.90;;;;;;5049207;28;20461;-74
2022/03/02 06:29:39;;;;;;;13.67;9.43;;;2.40;99.90;;;;;;5049326;28;20536;-70
2022/03/02 06:32:07;;;;;;;11.67;8.63;;;2.50;99.90;;;;;;5052844;28;20477;-79
2022/03/02 06:34:34;;;;;;;13.80;10.00;;;2.50;99.90;;;;;;5053306;28;20460;-72
2022/03/02 06:37:02;;;;;;;15.73;10.40;;;2.40;99.90;;;;;;5053321;28;20785;-73
2022/03/02 06:39:30;;;;;;;14.93;10.90;;;2.40;99.90;;;;;;5052929;28;20449;-72
2022/03/02 06:42:05;;;;;;;18.73;11.20;;;2.50;99.90;;;;;;5053151;28;20488;-79
2022/03/02 06:44:38;;;;;;;16.73;11.40;;;2.50;99.90;;;;;;5053869;28;20560;-80
2022/03/02 06:47:09;;;;;;;15.13;9.93;;;2.60;99.90;;;;;;5053132;28;20453;-79
2022/03/02 06:49:53;;;;;;;13.87;10.27;;;2.40;99.90;;;;;;5053098;28;20825;-78
2022/03/02 06:52:22;;;;;;;15.50;11.03;;;2.30;99.90;;;;;;5053245;28;20456;-79
2022/03/02 06:54:51;;;;;;;16.60;11.27;;;2.30;99.90;;;;;;5053086;28;20481;-78
2022/03/02 06:57:20;;;;;;;14.67;11.13;;;2.40;99.90;;;;;;5053504;28;20478;-79
2022/03/02 06:59:53;;;;;;;16.40;11.47;;;2.50;99.90;;;;;;5052751;28;20450;-77
2022/03/02 07:02:25;;;;;;;16.70;11.70;;;2.80;99.90;;;;;;5052555;28;20519;-66
2022/03/02 07:04:53;;;;;;;14.33;11.13;;;2.90;99.90;;;;;;5052561;28;20509;-75
2022/03/02 07:07:21;;;;;;;17.37;11.30;;;3.00;99.90;;;;;;5052446;28;20461;-79
2022/03/02 07:09:50;;;;;;;16.00;11.70;;;3.10;99.90;;;;;;5052629;28;20500;-73
2022/03/02 07:12:19;;;;;;;14.43;10.57;;;3.20;99.90;;;;;;5052569;28;20476;-76
2022/03/02 07:14:46;;;;;;;16.70;11.03;;;3.10;99.90;;;;;;5052218;28;20883;-74
2022/03/02 07:17:14;;;;;;;17.30;12.60;;;3.00;99.90;;;;;;5052456;28;20460;-75
2022/03/02 07:19:41;;;;;;;18.10;12.10;;;3.10;99.90;;;;;;5052420;28;20469;-75
2022/03/02 07:22:11;;;;;;;17.23;11.73;;;3.20;99.90;;;;;;5052451;28;20454;-75
2022/03/02 07:24:46;;;;;;;17.37;11.20;;;3.30;99.90;;;;;;5052167;28;20454;-73
2022/03/02 07:27:18;;;;;;;16.83;11.30;;;3.40;99.90;;;;;;5052058;28;20480;-71
2022/03/02 07:29:49;;;;;;;13.00;10.17;;;3.40;99.90;;;;;;5051884;28;20883;-72
2022/03/02 07:32:18;;;;;;;16.90;12.03;;;3.40;99.90;;;;;;5051621;28;20870;-75
2022/03/02 07:34:47;;;;;;;15.87;11.13;;;3.20;99.90;;;;;;5052120;28;20457;-73
2022/03/02 07:37:15;;;;;;;17.40;11.97;;;3.40;99.90;;;;;;5052020;28;20460;-71
2022/03/02 07:39:43;;;;;;;17.93;12.20;;;3.50;99.90;;;;;;5051810;28;20549;-73
2022/03/02 07:42:10;;;;;;;17.20;12.30;;;3.60;99.90;;;;;;5050422;28;20506;-73
2022/03/02 07:44:38;;;;;;;14.93;11.17;;;3.90;99.90;;;;;;5051905;28;20812;-73
2022/03/02 07:47:06;;;;;;;19.50;12.20;;;3.90;99.90;;;;;;5051932;28;20449;-74
2022/03/02 07:49:33;;;;;;;18.70;12.97;;;3.90;99.90;;;;;;5051813;28;21008;-72
2022/03/02 07:52:02;;;;;;;21.47;13.00;;;3.80;99.90;;;;;;5051791;28;20473;-72
2022/03/02 07:54:31;;;;;;;17.87;13.67;;;3.80;99.90;;;;;;5051374;28;20450;-72
2022/03/02 07:56:59;;;;;;;20.57;13.10;;;3.80;99.90;;;;;;5051612;28;20446;-73
2022/03/02 07:59:30;;;;;;;19.50;12.80;;;3.70;99.90;;;;;;5051511;28;20474;-72
2022/03/02 08:01:58;;;;;;;17.80;13.33;;;3.90;99.90;;;;;;5051591;28;21227;-74
2022/03/02 08:04:26;;;;;;;18.00;12.90;;;4.10;99.90;;;;;;5051432;28;20580;-73
2022/03/02 08:06:54;;;;;;;19.30;13.13;;;4.10;99.90;;;;;;5051026;28;20799;-73
2022/03/02 08:09:21;;;;;;;20.73;13.90;;;4.30;99.90;;;;;;5050987;28;20565;-73
2022/03/02 08:11:48;;;;;;;18.50;13.30;;;4.10;99.90;;;;;;5051425;28;20465;-73
2022/03/02 08:14:18;;;;;;;21.03;14.13;;;4.20;99.90;;;;;;5051044;28;20473;-72
2022/03/02 08:16:46;;;;;;;18.97;14.80;;;4.00;99.90;;;;;;5049795;28;20453;-74
2022/03/02 08:19:15;;;;;;;18.33;13.07;;;4.00;99.90;;;;;;5049698;28;20976;-72
2022/03/02 08:21:43;;;;;;;19.20;14.43;;;4.10;99.90;;;;;;5051019;28;20942;-73
2022/03/02 08:24:13;;;;;;;23.70;14.80;;;4.00;99.90;;;;;;5050859;28;21072;-73
2022/03/02 08:26:41;;;;;;;20.90;14.53;;;3.90;99.90;;;;;;5051143;28;20464;-72
2022/03/02 08:29:11;;;;;;;23.93;15.20;;;4.10;99.90;;;;;;5050959;28;20840;-72
2022/03/02 08:31:40;;;;;;;20.40;13.60;;;4.20;99.90;;;;;;5050384;28;20517;-73
2022/03/02 08:34:08;;;;;;;20.33;14.80;;;4.10;99.90;;;;;;5050482;28;20465;-73
2022/03/02 08:36:38;;;;;;;22.47;14.93;;;4.00;99.90;;;;;;5051095;28;20462;-74
2022/03/02 08:39:06;;;;;;;24.73;14.30;;;4.10;99.90;;;;;;5050871;28;20477;-74
2022/03/02 08:41:35;;;;;;;23.83;15.13;;;4.00;99.90;;;;;;5050900;28;20461;-73
2022/03/02 08:44:02;;;;;;;20.97;13.80;;;4.00;99.90;;;;;;5050728;28;20481;-72
2022/03/02 08:46:30;;;;;;;19.63;14.00;;;4.00;99.90;;;;;;5050278;28;20802;-73
2022/03/02 08:48:57;;;;;;;18.23;14.03;;;4.10;99.90;;;;;;5050226;28;20492;-72
2022/03/02 08:51:25;;;;;;;27.23;14.50;;;4.20;99.90;;;;;;5050451;28;20454;-73
2022/03/02 08:53:56;;;;;;;18.80;13.90;;;4.30;99.90;;;;;;5050185;28;20478;-73
2022/03/02 08:56:24;;;;;;;20.37;14.20;;;4.50;99.90;;;;;;5050406;28;20458;-73
2022/03/02 08:58:52;;;;;;;19.20;14.93;;;4.60;99.90;;;;;;5051278;28;20867;-73
2022/03/02 09:01:20;;;;;;;21.10;15.57;;;4.70;99.90;;;;;;5050545;28;20954;-73
2022/03/02 09:03:53;;;;;;;19.33;13.40;;;4.80;99.90;;;;;;5050322;28;20857;-73
2022/03/02 09:06:21;;;;;;;27.60;18.90;;;5.00;99.90;;;;;;5050382;28;20454;-74
2022/03/02 09:08:49;;;;;;;22.23;17.00;;;5.10;99.90;;;;;;5050388;28;20462;-73
2022/03/02 09:11:17;;;;;;;24.93;15.70;;;5.10;99.90;;;;;;5050306;28;20457;-72
2022/03/02 09:13:44;;;;;;;20.23;15.50;;;5.20;99.90;;;;;;5050016;28;20474;-73
2022/03/02 09:16:12;;;;;;;23.40;15.70;;;5.30;99.90;;;;;;5049975;28;20453;-73
2022/03/02 09:18:39;;;;;;;25.03;15.83;;;5.50;99.90;;;;;;5050072;28;20580;-73
2022/03/02 09:21:08;;;;;;;22.60;14.93;;;5.70;99.90;;;;;;5050141;28;20461;-73
2022/03/02 09:23:41;;;;;;;22.30;17.03;;;5.80;99.90;;;;;;5049927;28;20481;-73
2022/03/02 09:26:10;;;;;;;24.13;16.00;;;5.80;99.90;;;;;;5049835;28;20469;-73
2022/03/02 09:28:41;;;;;;;21.13;14.97;;;6.00;99.90;;;;;;5049897;28;20490;-73
2022/03/02 09:31:10;;;;;;;21.63;15.00;;;6.40;99.90;;;;;;5049713;28;20450;-75
2022/03/02 09:33:39;;;;;;;21.60;15.73;;;6.90;99.90;;;;;;5050043;28;20478;-70
2022/03/02 09:36:07;;;;;;;19.47;14.73;;;7.20;99.90;;;;;;5049950;28;20968;-73
2022/03/02 09:38:35;;;;;;;19.23;12.97;;;7.50;99.90;;;;;;5049541;28;20956;-74
2022/03/02 09:41:06;;;;;;;18.77;14.23;;;7.80;99.90;;;;;;5049862;28;20533;-73
2022/03/02 09:43:35;;;;;;;20.03;15.10;;;7.50;99.90;;;;;;5049756;28;20841;-72
2022/03/02 09:46:06;;;;;;;20.30;15.17;;;7.10;99.90;;;;;;5049725;28;20549;-73
2022/03/02 09:48:36;;;;;;;23.80;15.67;;;7.10;99.90;;;;;;5049638;28;20466;-73
2022/03/02 09:51:06;;;;;;;18.90;13.70;;;7.40;99.90;;;;;;5049445;28;20512;-74
2022/03/02 09:53:35;;;;;;;17.50;13.17;;;7.20;99.90;;;;;;5049390;28;20446;-73
2022/03/02 09:56:04;;;;;;;22.33;14.53;;;7.10;99.90;;;;;;5049587;28;20473;-73
2022/03/02 09:58:37;;;;;;;22.27;15.03;;;7.20;99.90;;;;;;5049815;28;20515;-74
2022/03/02 10:01:14;;;;;;;20.30;14.80;;;7.60;99.90;;;;;;5049638;28;20947;-73
2022/03/02 10:03:46;;;;;;;16.77;13.20;;;7.70;97.70;;;;;;5049453;28;20449;-75
2022/03/02 10:06:14;;;;;;;18.10;13.87;;;7.30;97.10;;;;;;5048563;28;20909;-73
2022/03/02 10:08:47;;;;;;;18.70;14.17;;;6.90;97.90;;;;;;5049492;28;20457;-73
2022/03/02 10:11:21;;;;;;;20.07;14.03;;;6.80;98.10;;;;;;5049376;28;20497;-74
2022/03/02 10:13:48;;;;;;;17.93;12.30;;;7.00;98.40;;;;;;5049461;28;20913;-72
2022/03/02 10:16:25;;;;;;;16.47;11.60;;;7.10;98.00;;;;;;5049341;28;20808;-73
2022/03/02 10:18:56;;;;;;;17.17;13.20;;;7.30;97.10;;;;;;5049362;28;20846;-72
2022/03/02 10:21:29;;;;;;;21.80;12.17;;;7.30;97.80;;;;;;5049330;28;20458;-74
2022/03/02 10:23:59;;;;;;;16.83;13.00;;;7.60;98.40;;;;;;5049446;28;21031;-73
2022/03/02 10:26:27;;;;;;;21.90;12.13;;;8.00;98.10;;;;;;5049195;28;20482;-72
2022/03/02 10:29:00;;;;;;;16.80;12.20;;;8.40;95.00;;;;;;5048943;28;20472;-74
2022/03/02 10:31:53;;;;;;;19.77;13.13;;;8.50;94.70;;;;;;5048871;28;20492;-73
2022/03/02 10:34:37;;;;;;;15.23;11.83;;;8.80;94.70;;;;;;5048866;28;20457;-73
2022/03/02 10:37:13;;;;;;;19.50;12.40;;;9.00;92.20;;;;;;5048969;28;20985;-73
2022/03/02 10:39:56;;;;;;;16.70;11.57;;;9.00;90.60;;;;;;5049615;28;20453;-73
2022/03/02 10:42:25;;;;;;;14.43;11.73;;;8.70;91.00;;;;;;5049136;28;20458;-73
2022/03/02 10:45:15;;;;;;;17.17;12.43;;;8.50;90.90;;;;;;5049033;28;20512;-73
2022/03/02 10:48:04;;;;;;;18.27;13.43;;;8.50;91.40;;;;;;5048915;28;20976;-74
2022/03/02 10:50:34;;;;;;;17.77;11.57;;;8.60;91.10;;;;;;5046587;28;20485;-74
2022/03/02 10:53:04;;;;;;;17.27;11.77;;;8.70;89.40;;;;;;5049016;28;20935;-73
2022/03/02 10:55:32;;;;;;;19.03;14.00;;;8.80;90.50;;;;;;5048499;28;20485;-73
2022/03/02 10:58:02;;;;;;;18.20;13.63;;;8.50;90.00;;;;;;5048677;28;20821;-73
2022/03/02 11:00:29;;;;;;;19.70;13.03;;;8.60;90.70;;;;;;5048811;28;20449;-72
2022/03/02 11:02:59;;;;;;;20.40;12.67;;;8.70;90.30;;;;;;5048640;28;20461;-73
2022/03/02 11:05:29;;;;;;;22.77;14.77;;;8.50;89.70;;;;;;5048960;28;20569;-73
2022/03/02 11:07:56;;;;;;;17.70;12.20;;;8.20;90.10;;;;;;5048853;28;20934;-73
2022/03/02 11:10:30;;;;;;;17.13;12.30;;;8.40;90.80;;;;;;5048566;28;20493;-74
2022/03/02 11:12:58;;;;;;;16.47;11.20;;;8.40;90.20;;;;;;5048526;28;20514;-73
2022/03/02 11:15:25;;;;;;;15.70;11.20;;;7.90;90.00;;;;;;5048714;28;20966;-74
2022/03/02 11:17:54;;;;;;;18.40;13.80;;;7.90;91.50;;;;;;5051978;28;20446;-74
2022/03/02 11:20:25;;;;;;;19.30;14.10;;;8.20;90.70;;;;;;5052517;28;20454;-74
2022/03/02 11:22:58;;;;;;;19.67;13.20;;;8.20;91.80;;;;;;5052075;28;20450;-74
2022/03/02 11:25:46;;;;;;;15.93;12.27;;;8.80;91.80;;;;;;5052329;28;20538;-73
2022/03/02 11:28:16;;;;;;;17.20;11.80;;;9.40;90.20;;;;;;5052330;28;20469;-74
2022/03/02 11:30:48;;;;;;;14.17;11.20;;;9.60;85.10;;;;;;5052185;28;20577;-73
2022/03/02 11:33:16;;;;;;;18.20;12.57;;;9.70;84.80;;;;;;5051754;28;20517;-74
2022/03/02 11:35:47;;;;;;;17.90;13.70;;;9.50;81.60;;;;;;5051726;28;20549;-73
2022/03/02 11:38:21;;;;;;;16.67;12.23;;;9.40;83.80;;;;;;5052029;28;20536;-74
2022/03/02 11:40:49;;;;;;;16.10;11.87;;;9.50;84.50;;;;;;5052213;28;20964;-57
2022/03/02 11:43:20;;;;;;;14.85;11.48;;;9.70;84.70;;;;;;5051698;28;20493;-74
2022/03/02 11:45:47;;;;;;;16.33;11.50;;;9.60;78.60;;;;;;5051832;28;20227;-70
2022/03/02 11:48:16;;;;;;;16.90;11.43;;;9.90;78.20;;;;;;5051617;28;20450;-72
2022/03/02 11:51:07;;;;;;;17.73;11.00;;;10.20;77.00;;;;;;5051620;28;20958;-72
2022/03/02 11:53:37;;;;;;;13.97;11.57;;;10.40;74.90;;;;;;5051524;28;20457;-72
2022/03/02 11:56:05;;;;;;;16.63;11.67;;;10.40;72.70;;;;;;5051804;28;20555;-68
2022/03/02 11:59:01;;;;;;;15.10;12.10;;;9.60;75.10;;;;;;5052694;28;20458;-75
2022/03/02 12:01:39;;;;;;;17.77;12.40;;;9.60;76.90;;;;;;5054211;28;20442;-74
2022/03/02 12:04:08;;;;;;;15.63;9.70;;;9.40;76.50;;;;;;5054444;28;20446;-76
2022/03/02 12:06:48;;;;;;;14.43;10.97;;;9.40;77.00;;;;;;5052855;28;20561;-74
2022/03/02 12:09:26;;;;;;;17.60;9.90;;;9.60;77.40;;;;;;5052311;28;20453;-70
2022/03/02 12:12:06;;;;;;;18.53;11.07;;;9.80;73.70;;;;;;5051916;28;20485;-72
2022/03/02 12:14:41;;;;;;;15.60;10.57;;;10.10;70.80;;;;;;5051092;28;20465;-70
2022/03/02 12:17:17;;;;;;;13.93;9.77;;;10.30;70.90;;;;;;5051318;28;20520;-71
2022/03/02 12:19:48;;;;;;;13.73;10.43;;;9.80;68.90;;;;;;5051475;28;20460;-70
2022/03/02 12:22:18;;;;;;;13.30;10.57;;;8.90;69.70;;;;;;5051599;28;20461;-71
2022/03/02 12:24:48;;;;;;;19.13;11.17;;;8.30;74.40;;;;;;5051249;28;20449;-71
2022/03/02 12:27:15;;;;;;;14.50;9.40;;;8.50;73.50;;;;;;5052210;28;20805;-72
2022/03/02 12:29:45;;;;;;;13.43;9.53;;;8.40;75.50;;;;;;5052479;28;20466;-74
2022/03/02 12:32:15;;;;;;;14.07;10.20;;;8.60;77.30;;;;;;5052604;28;20559;-70
2022/03/02 12:34:45;;;;;;;15.03;9.93;;;9.30;75.40;;;;;;5053645;28;20454;-70
2022/03/02 12:37:13;;;;;;;14.90;10.17;;;9.80;72.70;;;;;;5053678;28;20454;-72
2022/03/02 12:39:43;;;;;;;15.30;10.70;;;9.90;70.60;;;;;;5052949;28;20448;-73
2022/03/02 12:42:12;;;;;;;14.87;9.00;;;9.90;72.80;;;;;;5052992;28;20469;-72
2022/03/02 12:44:42;;;;;;;16.73;11.20;;;10.00;71.20;;;;;;5052659;28;20460;-69
2022/03/02 12:47:13;;;;;;;11.93;8.03;;;10.20;70.00;;;;;;5052523;28;20461;-71
2022/03/02 12:49:42;;;;;;;12.80;9.33;;;9.30;67.90;;;;;;5050998;28;20450;-70